Time;durP1;ratioP1;P1;durP2;ratioP2;P2;SDS_P1;SDS_P2;PMS_P1;PMS_P2;Temp;Humidity;BMP_temperature;BMP_pressure;BME280_temperature;BME280_humidity;BME280_pressure;Samples;Min_cycle;Max_cycle;Signal;HPM_P1;HPM_P2
2021/08/21 00:00:56;;;;;;;22.42;12.68;;;;;;;;;;4801093;29;20031;-74
2021/08/21 00:03:22;;;;;;;20.73;11.57;;;;;;;;;;4787333;29;20477;-72
2021/08/21 00:05:47;;;;;;;20.80;11.50;;;;;;;;;;4786163;30;20023;-73
2021/08/21 00:08:13;;;;;;;18.92;11.65;;;;;;;;;;4785091;29;20041;-73
2021/08/21 00:10:38;;;;;;;23.23;12.70;;;;;;;;;;4785656;30;20024;-73
2021/08/21 00:13:04;;;;;;;19.40;11.48;;;;;;;;;;4786699;29;20075;-72
2021/08/21 00:15:29;;;;;;;25.35;13.02;;;;;;;;;;4787367;29;20055;-74
2021/08/21 00:17:55;;;;;;;22.30;13.55;;;;;;;;;;4801664;29;20037;-74
2021/08/21 00:20:21;;;;;;;19.08;11.45;;;;;;;;;;4785600;30;20084;-76
2021/08/21 00:22:47;;;;;;;23.42;12.60;;;;;;;;;;4785425;30;20061;-76
2021/08/21 00:25:14;;;;;;;25.25;12.38;;;;;;;;;;4786994;29;20497;-76
2021/08/21 00:27:41;;;;;;;22.63;12.23;;;;;;;;;;4786673;29;20097;-76
2021/08/21 00:30:08;;;;;;;24.60;12.90;;;;;;;;;;4800284;29;20096;-76
2021/08/21 00:32:34;;;;;;;20.30;11.30;;;;;;;;;;4784990;30;20041;-75
2021/08/21 00:34:59;;;;;;;19.20;13.18;;;;;;;;;;4786612;29;20031;-76
2021/08/21 00:37:25;;;;;;;20.48;12.57;;;;;;;;;;4786239;29;20066;-75
2021/08/21 00:39:51;;;;;;;22.70;12.65;;;;;;;;;;4786300;29;20038;-77
2021/08/21 00:42:16;;;;;;;19.10;11.88;;;;;;;;;;4785847;29;20396;-76
2021/08/21 00:44:42;;;;;;;19.70;11.85;;;;;;;;;;4800038;29;20476;-76
2021/08/21 00:47:14;;;;;;;23.88;12.45;;;;;;;;;;4786159;29;20582;-76
2021/08/21 00:49:42;;;;;;;17.98;11.50;;;;;;;;;;4785337;30;20032;-74
2021/08/21 00:52:14;;;;;;;29.45;13.93;;;;;;;;;;4786052;29;20576;-76
2021/08/21 00:54:40;;;;;;;21.42;12.48;;;;;;;;;;4785246;30;20118;-77
2021/08/21 00:57:07;;;;;;;21.00;12.52;;;;;;;;;;4786065;29;20114;-75
2021/08/21 00:59:33;;;;;;;23.08;13.90;;;;;;;;;;4784859;30;20485;-76
2021/08/21 01:01:59;;;;;;;24.67;12.93;;;;;;;;;;4769528;30;20035;-75
2021/08/21 01:04:25;;;;;;;24.55;15.95;;;;;;;;;;4784680;30;20379;-72
2021/08/21 01:06:51;;;;;;;21.80;12.65;;;;;;;;;;4786318;29;20416;-72
2021/08/21 01:09:16;;;;;;;25.15;14.10;;;;;;;;;;4799611;29;20444;-73
2021/08/21 01:11:42;;;;;;;22.13;14.60;;;;;;;;;;4784750;29;20027;-73
2021/08/21 01:14:07;;;;;;;25.73;14.88;;;;;;;;;;4785736;29;20039;-74
2021/08/21 01:16:33;;;;;;;28.52;14.38;;;;;;;;;;4784739;30;20374;-73
2021/08/21 01:18:59;;;;;;;25.73;13.10;;;;;;;;;;4784050;29;20388;-73
2021/08/21 01:21:24;;;;;;;22.77;13.85;;;;;;;;;;4785383;29;20115;-73
2021/08/21 01:23:52;;;;;;;22.98;13.73;;;;;;;;;;4784316;30;20031;-74
2021/08/21 01:26:17;;;;;;;23.45;13.25;;;;;;;;;;4783991;30;20396;-72
2021/08/21 01:28:43;;;;;;;21.35;13.20;;;;;;;;;;4784258;30;20035;-73
2021/08/21 01:31:09;;;;;;;23.67;14.45;;;;;;;;;;4783965;30;20484;-74
2021/08/21 01:33:36;;;;;;;29.00;15.43;;;;;;;;;;4784340;30;20493;-73
2021/08/21 01:36:01;;;;;;;27.23;16.42;;;;;;;;;;4784206;29;20488;-73
2021/08/21 01:38:27;;;;;;;27.13;15.80;;;;;;;;;;4784127;30;20059;-73
2021/08/21 01:40:53;;;;;;;25.52;14.63;;;;;;;;;;4784127;29;20055;-73
2021/08/21 01:43:21;;;;;;;25.85;14.20;;;;;;;;;;4799234;29;20122;-73
2021/08/21 01:45:47;;;;;;;23.20;14.18;;;;;;;;;;4784183;30;20050;-73
2021/08/21 01:48:13;;;;;;;23.33;13.70;;;;;;;;;;4785296;30;20035;-72
2021/08/21 01:50:39;;;;;;;23.77;14.00;;;;;;;;;;4784094;30;20035;-72
2021/08/21 01:53:10;;;;;;;22.40;12.98;;;;;;;;;;4785079;29;20047;-72
2021/08/21 01:55:35;;;;;;;25.87;14.60;;;;;;;;;;4784304;29;20073;-74
2021/08/21 01:58:01;;;;;;;27.02;14.30;;;;;;;;;;4799010;29;20080;-74
2021/08/21 02:00:29;;;;;;;19.95;11.25;;;;;;;;;;4784048;30;20035;-73
2021/08/21 02:02:56;;;;;;;24.25;13.88;;;;;;;;;;4798996;29;20042;-72
2021/08/21 02:05:22;;;;;;;41.35;14.23;;;;;;;;;;4785119;29;20125;-73
2021/08/21 02:07:48;;;;;;;93.93;18.55;;;;;;;;;;4783929;30;20629;-73
2021/08/21 02:10:16;;;;;;;39.55;14.95;;;;;;;;;;4785046;29;20050;-74
2021/08/21 02:12:41;;;;;;;56.65;15.32;;;;;;;;;;4783624;30;20396;-74
2021/08/21 02:15:15;;;;;;;61.88;16.35;;;;;;;;;;4783592;30;20176;-72
2021/08/21 02:17:41;;;;;;;77.18;15.30;;;;;;;;;;4769054;30;20084;-73
2021/08/21 02:20:11;;;;;;;57.92;15.65;;;;;;;;;;4784957;29;20422;-74
2021/08/21 02:22:40;;;;;;;64.78;16.75;;;;;;;;;;4799009;29;20099;-74
2021/08/21 02:25:07;;;;;;;61.15;16.63;;;;;;;;;;4783318;30;20401;-75
2021/08/21 02:27:39;;;;;;;32.95;15.38;;;;;;;;;;4784875;29;20059;-72
2021/08/21 02:30:06;;;;;;;48.40;14.80;;;;;;;;;;4784906;29;20031;-74
2021/08/21 02:32:31;;;;;;;44.55;14.18;;;;;;;;;;4784589;29;20032;-74
2021/08/21 02:34:57;;;;;;;37.50;12.68;;;;;;;;;;4785026;29;20466;-74
2021/08/21 02:37:23;;;;;;;34.80;13.60;;;;;;;;;;4768620;30;20047;-73
2021/08/21 02:39:49;;;;;;;39.88;13.60;;;;;;;;;;4783579;30;20039;-74
2021/08/21 02:42:15;;;;;;;46.63;14.73;;;;;;;;;;4798333;29;20047;-74
2021/08/21 02:44:40;;;;;;;47.20;13.07;;;;;;;;;;4783511;30;20088;-73
2021/08/21 02:47:06;;;;;;;37.28;13.75;;;;;;;;;;4783561;30;20035;-72
2021/08/21 02:49:34;;;;;;;46.58;12.85;;;;;;;;;;4784667;29;20106;-73
2021/08/21 02:52:00;;;;;;;32.15;12.27;;;;;;;;;;4784398;29;20452;-77
2021/08/21 02:54:26;;;;;;;26.70;14.52;;;;;;;;;;4782875;30;20119;-77
2021/08/21 02:56:51;;;;;;;42.08;11.93;;;;;;;;;;4782985;30;20118;-75
2021/08/21 02:59:17;;;;;;;48.13;12.38;;;;;;;;;;4783064;30;20027;-74
2021/08/21 03:01:42;;;;;;;50.17;12.48;;;;;;;;;;4784232;29;20034;-76
2021/08/21 03:04:08;;;;;;;33.53;10.68;;;;;;;;;;4784096;29;20035;-75
2021/08/21 03:06:34;;;;;;;25.50;10.95;;;;;;;;;;4782923;30;20035;-76
2021/08/21 03:08:59;;;;;;;26.88;10.35;;;;;;;;;;4784320;29;20095;-75
2021/08/21 03:11:25;;;;;;;30.92;9.48;;;;;;;;;;4782562;30;20767;-76
2021/08/21 03:13:50;;;;;;;29.08;10.20;;;;;;;;;;4782840;30;20031;-77
2021/08/21 03:16:16;;;;;;;21.63;9.60;;;;;;;;;;4782500;30;20032;-75
2021/08/21 03:18:41;;;;;;;23.20;9.20;;;;;;;;;;4797914;29;20035;-76
2021/08/21 03:21:07;;;;;;;22.15;9.10;;;;;;;;;;4797604;29;20031;-76
2021/08/21 03:23:32;;;;;;;23.65;8.77;;;;;;;;;;4784044;29;20035;-72
2021/08/21 03:25:58;;;;;;;23.83;9.48;;;;;;;;;;4784198;29;20118;-72
2021/08/21 03:28:24;;;;;;;21.13;10.65;;;;;;;;;;4783922;29;20404;-72
2021/08/21 03:30:49;;;;;;;17.65;9.38;;;;;;;;;;4784276;29;20035;-71
2021/08/21 03:33:15;;;;;;;22.27;10.20;;;;;;;;;;4782501;30;20035;-72
2021/08/21 03:35:43;;;;;;;15.57;10.27;;;;;;;;;;4767810;29;20046;-73
2021/08/21 03:38:09;;;;;;;21.15;8.75;;;;;;;;;;4782595;30;20031;-73
2021/08/21 03:40:34;;;;;;;22.63;10.20;;;;;;;;;;4789154;29;20133;-71
2021/08/21 03:43:00;;;;;;;23.02;9.85;;;;;;;;;;4803297;29;20035;-74
2021/08/21 03:45:26;;;;;;;25.45;10.30;;;;;;;;;;4788957;29;20046;-72
2021/08/21 03:47:53;;;;;;;17.30;9.68;;;;;;;;;;4805393;29;20055;-73
2021/08/21 03:50:18;;;;;;;18.52;10.30;;;;;;;;;;4788818;29;20045;-72
2021/08/21 03:52:44;;;;;;;27.58;9.68;;;;;;;;;;4803519;29;20039;-73
2021/08/21 03:55:10;;;;;;;24.27;9.27;;;;;;;;;;4788627;29;20500;-72
2021/08/21 03:57:35;;;;;;;45.05;11.02;;;;;;;;;;4804801;29;20038;-73
2021/08/21 04:00:03;;;;;;;24.45;9.60;;;;;;;;;;4803653;29;20506;-72
2021/08/21 04:02:29;;;;;;;19.60;11.40;;;;;;;;;;4788352;29;20154;-72
2021/08/21 04:04:54;;;;;;;22.00;10.90;;;;;;;;;;4804952;29;20484;-73
2021/08/21 04:07:20;;;;;;;27.38;10.27;;;;;;;;;;4803717;29;20612;-71
2021/08/21 04:09:47;;;;;;;33.35;11.48;;;;;;;;;;4773733;29;20046;-73
2021/08/21 04:12:18;;;;;;;31.70;11.25;;;;;;;;;;4804517;29;20035;-72
2021/08/21 04:14:43;;;;;;;24.48;11.27;;;;;;;;;;4788705;29;20496;-72
2021/08/21 04:17:09;;;;;;;27.92;11.45;;;;;;;;;;4788287;29;20042;-71
2021/08/21 04:19:34;;;;;;;27.30;12.15;;;;;;;;;;4804309;29;20488;-77
2021/08/21 04:22:00;;;;;;;37.80;10.93;;;;;;;;;;4788043;29;20066;-75
2021/08/21 04:24:25;;;;;;;19.80;10.10;;;;;;;;;;4787811;29;20441;-75
2021/08/21 04:26:51;;;;;;;17.08;10.70;;;;;;;;;;4787946;29;20042;-74
2021/08/21 04:29:16;;;;;;;21.73;10.13;;;;;;;;;;4787868;29;20365;-75
2021/08/21 04:31:41;;;;;;;22.50;10.77;;;;;;;;;;4788060;29;20520;-76
2021/08/21 04:34:07;;;;;;;20.88;10.30;;;;;;;;;;4788078;29;20077;-75
2021/08/21 04:36:32;;;;;;;21.15;9.25;;;;;;;;;;4803947;29;20034;-75
2021/08/21 04:38:58;;;;;;;19.30;9.68;;;;;;;;;;4804390;29;20027;-75
2021/08/21 04:41:23;;;;;;;16.00;9.63;;;;;;;;;;4787327;29;20122;-75
2021/08/21 04:43:49;;;;;;;20.15;9.23;;;;;;;;;;4804219;29;20400;-76
2021/08/21 04:46:15;;;;;;;20.42;13.60;;;;;;;;;;4787533;29;20163;-76
2021/08/21 04:48:40;;;;;;;22.33;10.80;;;;;;;;;;4787393;29;20050;-76
2021/08/21 04:51:06;;;;;;;33.58;10.45;;;;;;;;;;4772586;29;20038;-76
2021/08/21 04:53:31;;;;;;;42.10;10.52;;;;;;;;;;4803534;29;20035;-75
2021/08/21 04:55:57;;;;;;;27.23;11.00;;;;;;;;;;4803977;29;20038;-76
2021/08/21 04:58:22;;;;;;;28.63;10.07;;;;;;;;;;4787352;29;20037;-76
2021/08/21 05:00:48;;;;;;;47.75;11.70;;;;;;;;;;4787519;29;20057;-76
2021/08/21 05:03:13;;;;;;;21.08;9.77;;;;;;;;;;4802233;29;20507;-76
2021/08/21 05:05:39;;;;;;;15.48;10.15;;;;;;;;;;4803934;29;20031;-75
2021/08/21 05:08:04;;;;;;;18.35;11.77;;;;;;;;;;4803637;29;20042;-75
2021/08/21 05:10:30;;;;;;;30.05;10.82;;;;;;;;;;4803465;29;20468;-76
2021/08/21 05:12:55;;;;;;;23.98;9.68;;;;;;;;;;4787017;29;20668;-75
2021/08/21 05:15:21;;;;;;;18.45;11.20;;;;;;;;;;4803590;29;20034;-76
2021/08/21 05:17:49;;;;;;;20.27;10.38;;;;;;;;;;4804222;29;20038;-76
2021/08/21 05:20:19;;;;;;;19.67;11.13;;;;;;;;;;4803351;29;20494;-76
2021/08/21 05:25:12;;;;;;;24.25;10.27;;;;;;;;;;4803666;29;20031;-76
2021/08/21 05:27:38;;;;;;;20.02;9.80;;;;;;;;;;4802927;29;20222;-76
2021/08/21 05:30:05;;;;;;;14.98;9.60;;;;;;;;;;4786899;29;20054;-75
2021/08/21 05:32:31;;;;;;;19.67;9.77;;;;;;;;;;4801687;29;20061;-76
2021/08/21 05:34:57;;;;;;;17.50;10.10;;;;;;;;;;4786710;29;20038;-77
2021/08/21 05:37:23;;;;;;;16.48;9.55;;;;;;;;;;4786390;29;20034;-76
2021/08/21 05:39:49;;;;;;;23.42;10.15;;;;;;;;;;4802840;29;20062;-76
2021/08/21 05:42:14;;;;;;;26.98;10.80;;;;;;;;;;4802992;29;20130;-73
2021/08/21 05:44:40;;;;;;;23.27;10.85;;;;;;;;;;4803150;29;20058;-76
2021/08/21 05:47:05;;;;;;;18.20;9.95;;;;;;;;;;4803203;29;20467;-77
2021/08/21 05:49:31;;;;;;;19.05;12.10;;;;;;;;;;4802767;29;20075;-77
2021/08/21 05:52:00;;;;;;;19.13;10.65;;;;;;;;;;4802952;29;20480;-76
2021/08/21 05:54:25;;;;;;;20.95;10.73;;;;;;;;;;4786404;29;20129;-77
2021/08/21 05:56:51;;;;;;;25.63;12.57;;;;;;;;;;4802835;29;20574;-76
2021/08/21 05:59:16;;;;;;;25.00;10.60;;;;;;;;;;4786470;29;20107;-77
2021/08/21 06:01:42;;;;;;;26.17;11.00;;;;;;;;;;4802781;29;20384;-76
2021/08/21 06:04:07;;;;;;;19.13;10.20;;;;;;;;;;4802776;29;20069;-76
2021/08/21 06:06:34;;;;;;;19.63;11.02;;;;;;;;;;4785910;29;20039;-75
2021/08/21 06:09:00;;;;;;;18.77;9.50;;;;;;;;;;4786410;29;20041;-75
2021/08/21 06:11:25;;;;;;;16.58;9.18;;;;;;;;;;4786262;29;20035;-75
2021/08/21 06:13:51;;;;;;;17.52;10.38;;;;;;;;;;4802407;29;20063;-76
2021/08/21 06:16:16;;;;;;;17.92;10.82;;;;;;;;;;4802236;29;20039;-74
2021/08/21 06:18:42;;;;;;;19.85;12.85;;;;;;;;;;4786165;29;20034;-75
2021/08/21 06:21:07;;;;;;;15.82;9.95;;;;;;;;;;4802574;29;20031;-76
2021/08/21 06:23:33;;;;;;;19.90;10.80;;;;;;;;;;4785932;29;20038;-75
2021/08/21 06:25:58;;;;;;;20.48;9.90;;;;;;;;;;4786211;29;20488;-73
2021/08/21 06:28:24;;;;;;;16.60;10.07;;;;;;;;;;4802725;29;20043;-73
2021/08/21 06:30:49;;;;;;;22.38;13.88;;;;;;;;;;4802607;29;20035;-74
2021/08/21 06:33:15;;;;;;;20.08;11.52;;;;;;;;;;4786323;29;20035;-73
2021/08/21 06:35:40;;;;;;;18.42;11.43;;;;;;;;;;4802523;29;20400;-73
2021/08/21 06:38:06;;;;;;;21.05;11.82;;;;;;;;;;4786198;29;20039;-73
2021/08/21 06:40:31;;;;;;;16.98;10.55;;;;;;;;;;4802461;29;20139;-74
2021/08/21 06:42:57;;;;;;;19.48;11.27;;;;;;;;;;4802527;29;20046;-74
2021/08/21 06:45:22;;;;;;;22.10;11.70;;;;;;;;;;4800869;29;20111;-74
2021/08/21 06:47:48;;;;;;;22.77;12.25;;;;;;;;;;4802305;29;20046;-74
2021/08/21 06:50:13;;;;;;;26.35;12.43;;;;;;;;;;4802226;29;20119;-74
2021/08/21 06:52:39;;;;;;;31.48;14.90;;;;;;;;;;4801781;29;20468;-74
2021/08/21 06:55:05;;;;;;;24.70;13.68;;;;;;;;;;4785952;29;20517;-74
2021/08/21 06:57:30;;;;;;;30.33;14.48;;;;;;;;;;4802099;29;20369;-74
2021/08/21 06:59:59;;;;;;;28.08;13.52;;;;;;;;;;4785696;29;20396;-75
2021/08/21 07:02:25;;;;;;;26.10;13.38;;;;;;;;;;4785427;29;20100;-74
2021/08/21 07:04:50;;;;;;;23.40;13.73;;;;;;;;;;4770965;29;20038;-74
2021/08/21 07:07:16;;;;;;;23.08;12.85;;;;;;;;;;4800974;29;20060;-74
2021/08/21 07:09:41;;;;;;;22.23;13.40;;;;;;;;;;4801901;29;20087;-75
2021/08/21 07:12:07;;;;;;;20.33;12.48;;;;;;;;;;4785575;29;20045;-75
2021/08/21 07:14:33;;;;;;;22.88;12.43;;;;;;;;;;4801968;29;20088;-74
2021/08/21 07:16:58;;;;;;;23.02;13.50;;;;;;;;;;4803057;29;20475;-74
2021/08/21 07:19:24;;;;;;;25.92;13.70;;;;;;;;;;4805217;29;20031;-73
2021/08/21 07:21:53;;;;;;;27.58;17.55;;;;;;;;;;4789106;29;20061;-75
2021/08/21 07:24:19;;;;;;;23.13;13.38;;;;;;;;;;4805294;29;20118;-73
2021/08/21 07:26:45;;;;;;;21.23;13.15;;;;;;;;;;4788728;29;20034;-74
2021/08/21 07:29:11;;;;;;;21.75;13.65;;;;;;;;;;4805370;29;20031;-74
2021/08/21 07:31:36;;;;;;;24.38;13.85;;;;;;;;;;4788690;29;20031;-74
2021/08/21 07:34:02;;;;;;;23.73;14.43;;;;;;;;;;4805327;29;20523;-73
2021/08/21 07:36:27;;;;;;;25.70;17.67;;;;;;;;;;4788882;29;20099;-75
2021/08/21 07:38:53;;;;;;;27.45;15.38;;;;;;;;;;4805247;29;20042;-74
2021/08/21 07:41:19;;;;;;;26.23;14.68;;;;;;;;;;4788605;29;20047;-74
2021/08/21 07:43:45;;;;;;;24.23;15.32;;;;;;;;;;4805224;29;20038;-74
2021/08/21 07:46:10;;;;;;;24.98;14.75;;;;;;;;;;4788652;29;20188;-74
2021/08/21 07:48:36;;;;;;;30.45;15.70;;;;;;;;;;4805184;29;20091;-75
2021/08/21 07:51:04;;;;;;;28.13;15.55;;;;;;;;;;4788817;29;20102;-74
2021/08/21 07:53:32;;;;;;;28.15;17.90;;;;;;;;;;4773376;29;20133;-75
2021/08/21 07:55:58;;;;;;;28.83;17.52;;;;;;;;;;4803926;29;20038;-75
2021/08/21 07:58:23;;;;;;;33.00;16.98;;;;;;;;;;4804745;29;20042;-74
2021/08/21 08:00:49;;;;;;;28.25;17.60;;;;;;;;;;4788581;29;20145;-75
2021/08/21 08:03:15;;;;;;;29.60;17.88;;;;;;;;;;4788250;29;20117;-75
2021/08/21 08:05:44;;;;;;;30.73;18.70;;;;;;;;;;4788186;29;20571;-74
2021/08/21 08:08:09;;;;;;;28.35;16.48;;;;;;;;;;4788297;29;20038;-75
2021/08/21 08:10:35;;;;;;;28.67;16.42;;;;;;;;;;4804492;29;20189;-73
2021/08/21 08:13:00;;;;;;;24.85;15.45;;;;;;;;;;4804556;29;20035;-74
2021/08/21 08:15:26;;;;;;;24.83;16.17;;;;;;;;;;4788089;29;20035;-74
2021/08/21 08:17:51;;;;;;;25.50;15.45;;;;;;;;;;4804509;29;20035;-75
2021/08/21 08:20:17;;;;;;;28.35;16.73;;;;;;;;;;4787966;29;20046;-74
2021/08/21 08:22:43;;;;;;;29.38;17.25;;;;;;;;;;4802739;29;20035;-74
2021/08/21 08:25:09;;;;;;;30.38;17.50;;;;;;;;;;4804307;29;20476;-75
2021/08/21 08:27:36;;;;;;;28.15;17.48;;;;;;;;;;4787428;29;20053;-73
2021/08/21 08:30:03;;;;;;;33.10;17.08;;;;;;;;;;4786985;29;20045;-75
2021/08/21 08:32:29;;;;;;;30.67;17.77;;;;;;;;;;4804009;29;20062;-74
2021/08/21 08:34:54;;;;;;;22.25;15.23;;;;;;;;;;4787966;29;20515;-75
2021/08/21 08:37:20;;;;;;;24.15;16.02;;;;;;;;;;4787767;29;20030;-74
2021/08/21 08:39:45;;;;;;;31.70;16.33;;;;;;;;;;4787672;29;20077;-74
2021/08/21 08:42:13;;;;;;;23.98;15.77;;;;;;;;;;4802503;29;20170;-74
2021/08/21 08:44:43;;;;;;;28.02;16.33;;;;;;;;;;4802460;29;20096;-75
2021/08/21 08:47:08;;;;;;;27.20;16.33;;;;;;;;;;4803753;29;20034;-73
2021/08/21 08:49:37;;;;;;;23.83;15.43;;;;;;;;;;4804114;29;20026;-75
2021/08/21 08:52:05;;;;;;;23.10;15.25;;;;;;;;;;4787358;29;20460;-74
2021/08/21 08:54:30;;;;;;;25.98;16.92;;;;;;;;;;4787158;29;20026;-74
2021/08/21 08:56:56;;;;;;;22.77;14.13;;;;;;;;;;4787368;29;20183;-74
2021/08/21 08:59:22;;;;;;;23.60;14.88;;;;;;;;;;4803173;29;20034;-74
2021/08/21 09:01:47;;;;;;;24.27;13.77;;;;;;;;;;4803355;29;20034;-74
2021/08/21 09:04:23;;;;;;;22.55;14.05;;;;;;;;;;4787460;29;20061;-75
2021/08/21 09:06:49;;;;;;;19.40;12.05;;;;;;;;;;4786995;29;20034;-74
2021/08/21 09:09:17;;;;;;;27.05;14.38;;;;;;;;;;4787127;29;20087;-74
2021/08/21 09:11:45;;;;;;;21.38;14.07;;;;;;;;;;4786809;29;20233;-74
2021/08/21 09:14:20;;;;;;;23.20;13.95;;;;;;;;;;4803232;29;20030;-74
2021/08/21 09:16:46;;;;;;;21.05;13.30;;;;;;;;;;4803105;29;20069;-75
2021/08/21 09:19:20;;;;;;;22.27;14.43;;;;;;;;;;4803456;29;20031;-74
2021/08/21 09:22:05;;;;;;;25.23;14.30;;;;;;;;;;4786826;29;20507;-73
2021/08/21 09:24:32;;;;;;;22.52;14.85;;;;;;;;;;4786685;29;20042;-74
2021/08/21 09:27:19;;;;;;;23.40;13.55;;;;;;;;;;4803296;29;20404;-74
2021/08/21 09:29:45;;;;;;;26.10;11.90;;;;;;;;;;4802953;29;20042;-74
2021/08/21 09:32:11;;;;;;;23.88;13.95;;;;;;;;;;4802946;29;20031;-75
2021/08/21 09:34:38;;;;;;;22.40;11.23;;;;;;;;;;4803011;29;20023;-75
2021/08/21 09:37:09;;;;;;;17.92;10.82;;;;;;;;;;4787034;29;20046;-74
2021/08/21 09:39:37;;;;;;;;;;;;;;;;;;4803480;29;20109;-74
2021/08/21 09:42:05;;;;;;;22.95;11.98;;;;;;;;;;4802160;29;19952;-73
2021/08/21 09:44:34;;;;;;;22.08;13.15;;;;;;;;;;4787282;29;20057;-73
2021/08/21 09:47:12;;;;;;;21.73;13.40;;;;;;;;;;4786884;29;20126;-73
2021/08/21 09:49:38;;;;;;;23.15;13.82;;;;;;;;;;4803236;29;20099;-74
2021/08/21 09:52:13;;;;;;;20.38;12.30;;;;;;;;;;4803081;29;20077;-74
2021/08/21 09:54:40;;;;;;;23.08;13.38;;;;;;;;;;4802948;29;20027;-73
2021/08/21 09:57:06;;;;;;;20.45;12.95;;;;;;;;;;4786735;29;20117;-74
2021/08/21 09:59:43;;;;;;;19.85;12.05;;;;;;;;;;4802655;29;20058;-74
2021/08/21 10:02:14;;;;;;;19.60;11.90;;;;;;;;;;4803197;29;20027;-73
2021/08/21 10:04:43;;;;;;;18.40;12.23;;;;;;;;;;4801463;29;20062;-73
2021/08/21 10:07:17;;;;;;;23.77;12.90;;;;;;;;;;4803006;29;20087;-74
2021/08/21 10:09:44;;;;;;;20.50;11.02;;;;;;;;;;4786576;29;20127;-74
2021/08/21 10:12:11;;;;;;;17.25;11.52;;;;;;;;;;4803168;29;20038;-73
2021/08/21 10:14:40;;;;;;;17.33;10.85;;;;;;;;;;4786498;29;20038;-74
2021/08/21 10:17:06;;;;;;;19.75;11.48;;;;;;;;;;4802762;29;20034;-73
2021/08/21 10:19:33;;;;;;;21.10;11.80;;;;;;;;;;4802482;29;20042;-75
2021/08/21 10:22:00;;;;;;;17.15;10.88;;;;;;;;;;4802807;29;20027;-74
2021/08/21 10:24:37;;;;;;;16.35;10.07;;;;;;;;;;4802859;29;20035;-74
2021/08/21 10:27:28;;;;;;;18.67;12.07;;;;;;;;;;4802689;29;20513;-73
2021/08/21 10:30:25;;;;;;;20.52;11.80;;;;;;;;;;4802514;29;20035;-73
2021/08/21 10:33:02;;;;;;;19.42;12.35;;;;;;;;;;4801025;29;20432;-74
2021/08/21 10:35:40;;;;;;;16.05;10.38;;;;;;;;;;4786272;29;20126;-72
2021/08/21 10:38:35;;;;;;;13.75;8.90;;;;;;;;;;4802712;29;20152;-73
2021/08/21 10:41:10;;;;;;;10.43;7.35;;;;;;;;;;4801198;29;20090;-74
2021/08/21 10:43:53;;;;;;;11.48;7.45;;;;;;;;;;4802358;29;20033;-73
2021/08/21 10:46:31;;;;;;;10.27;6.53;;;;;;;;;;4801294;29;20031;-73
2021/08/21 10:48:58;;;;;;;11.80;7.63;;;;;;;;;;4803066;29;20042;-73
2021/08/21 10:51:37;;;;;;;10.57;7.05;;;;;;;;;;4801194;29;20083;-74
2021/08/21 10:54:25;;;;;;;10.35;6.78;;;;;;;;;;4790152;29;20058;-74
2021/08/21 10:56:55;;;;;;;11.07;6.28;;;;;;;;;;4805298;29;20053;-74
2021/08/21 10:59:44;;;;;;;15.23;8.10;;;;;;;;;;4806813;29;20023;-74
2021/08/21 11:02:31;;;;;;;12.63;7.72;;;;;;;;;;4789757;29;20030;-74
2021/08/21 11:04:59;;;;;;;9.35;6.90;;;;;;;;;;4806089;29;20026;-74
2021/08/21 11:07:31;;;;;;;13.40;6.25;;;;;;;;;;4789608;29;20064;-73
2021/08/21 11:10:17;;;;;;;14.48;6.00;;;;;;;;;;4805046;29;20031;-74
2021/08/21 11:12:46;;;;;;;9.82;6.00;;;;;;;;;;4789791;29;20046;-74
2021/08/21 11:15:16;;;;;;;14.02;6.50;;;;;;;;;;4807296;29;20038;-74
2021/08/21 11:17:42;;;;;;;12.52;7.43;;;;;;;;;;4790463;29;20050;-74
2021/08/21 11:20:23;;;;;;;9.88;5.93;;;;;;;;;;4789691;29;20046;-74
2021/08/21 11:23:07;;;;;;;11.68;6.07;;;;;;;;;;4804528;29;20201;-74
2021/08/21 11:25:38;;;;;;;14.18;7.10;;;;;;;;;;4805839;29;20060;-74
2021/08/21 11:28:10;;;;;;;10.13;4.47;;;;;;;;;;4805830;29;20035;-74
2021/08/21 11:30:36;;;;;;;8.27;5.50;;;;;;;;;;4805443;29;20060;-74
2021/08/21 11:33:08;;;;;;;8.77;5.47;;;;;;;;;;4805527;29;20034;-73
2021/08/21 11:35:35;;;;;;;8.50;4.78;;;;;;;;;;4805660;29;20034;-74
2021/08/21 11:38:05;;;;;;;7.07;4.40;;;;;;;;;;4789188;29;20653;-74
2021/08/21 11:40:41;;;;;;;13.10;8.38;;;;;;;;;;4788853;29;20059;-73
2021/08/21 11:43:10;;;;;;;14.15;6.25;;;;;;;;;;4805615;29;20023;-73
2021/08/21 11:45:37;;;;;;;11.77;6.72;;;;;;;;;;4805309;29;20231;-71
2021/08/21 11:48:03;;;;;;;12.55;6.18;;;;;;;;;;4789184;29;20373;-73
2021/08/21 11:50:46;;;;;;;10.23;4.75;;;;;;;;;;4805638;29;20019;-74
2021/08/21 11:53:29;;;;;;;8.52;4.55;;;;;;;;;;4804858;29;20084;-74
2021/08/21 11:55:58;;;;;;;7.32;4.30;;;;;;;;;;4804624;29;20038;-74
2021/08/21 11:58:31;;;;;;;5.00;3.58;;;;;;;;;;4788652;29;20091;-73
2021/08/21 12:01:03;;;;;;;8.68;3.50;;;;;;;;;;4788124;29;20039;-76
2021/08/21 12:04:22;;;;;;;7.28;3.75;;;;;;;;;;4788573;29;20569;-74
2021/08/21 12:06:27;;;;;;;5.53;4.55;;;;;;;;;;4804045;29;20365;-74
2021/08/21 12:09:09;;;;;;;8.25;4.60;;;;;;;;;;4804677;29;20023;-74
2021/08/21 12:11:35;;;;;;;6.80;4.22;;;;;;;;;;4804807;29;20031;-75
2021/08/21 12:14:01;;;;;;;17.02;4.65;;;;;;;;;;4788136;29;20023;-75
2021/08/21 12:16:29;;;;;;;8.45;5.30;;;;;;;;;;4788277;29;20033;-73
2021/08/21 12:18:56;;;;;;;9.65;6.15;;;;;;;;;;4788132;29;20038;-74
2021/08/21 12:21:23;;;;;;;9.50;4.90;;;;;;;;;;4788471;29;20031;-75
2021/08/21 12:23:51;;;;;;;16.15;6.32;;;;;;;;;;4804315;29;20039;-73
2021/08/21 12:26:45;;;;;;;9.70;5.25;;;;;;;;;;4804130;29;20373;-74
2021/08/21 12:29:30;;;;;;;8.85;5.65;;;;;;;;;;4804503;29;20552;-74
2021/08/21 12:31:59;;;;;;;8.68;6.07;;;;;;;;;;4804452;29;20045;-75
2021/08/21 12:34:28;;;;;;;10.60;5.45;;;;;;;;;;4788135;29;20046;-74
2021/08/21 12:36:57;;;;;;;9.95;5.95;;;;;;;;;;4787642;29;20195;-73
2021/08/21 12:39:25;;;;;;;8.90;5.82;;;;;;;;;;4804508;29;20095;-73
2021/08/21 12:42:02;;;;;;;7.70;4.97;;;;;;;;;;4772558;29;20077;-74
2021/08/21 12:44:38;;;;;;;8.57;4.93;;;;;;;;;;4787796;29;20426;-74
2021/08/21 12:47:10;;;;;;;7.90;5.25;;;;;;;;;;4803851;29;20065;-74
2021/08/21 12:49:42;;;;;;;6.78;4.88;;;;;;;;;;4804007;29;20474;-74
2021/08/21 12:52:08;;;;;;;8.02;5.18;;;;;;;;;;4787416;29;20437;-73
2021/08/21 12:54:40;;;;;;;10.70;5.75;;;;;;;;;;4803871;29;20083;-75
2021/08/21 12:57:10;;;;;;;6.25;4.43;;;;;;;;;;4804192;29;20045;-74
2021/08/21 12:59:38;;;;;;;7.68;4.45;;;;;;;;;;4804057;29;20043;-73
2021/08/21 13:02:12;;;;;;;10.02;6.80;;;;;;;;;;4804143;29;20059;-75
2021/08/21 13:04:41;;;;;;;6.85;4.40;;;;;;;;;;4787762;29;20034;-74
2021/08/21 13:07:09;;;;;;;6.88;4.55;;;;;;;;;;4803632;29;20041;-74
2021/08/21 13:09:36;;;;;;;10.23;5.43;;;;;;;;;;4772647;29;20504;-74
2021/08/21 13:12:02;;;;;;;4.05;3.53;;;;;;;;;;4787154;29;20042;-74
2021/08/21 13:14:28;;;;;;;7.03;4.03;;;;;;;;;;4787315;29;20030;-73
2021/08/21 13:16:55;;;;;;;10.10;4.40;;;;;;;;;;4787060;29;20062;-74
2021/08/21 13:19:23;;;;;;;13.93;4.55;;;;;;;;;;4787421;29;20050;-74
2021/08/21 13:21:49;;;;;;;8.68;4.18;;;;;;;;;;4772274;29;20075;-74
2021/08/21 13:24:14;;;;;;;12.25;4.00;;;;;;;;;;4787464;29;20476;-74
2021/08/21 13:26:40;;;;;;;10.32;4.85;;;;;;;;;;4803539;29;20392;-74
2021/08/21 13:29:07;;;;;;;14.43;6.45;;;;;;;;;;4803776;29;20140;-74
2021/08/21 13:31:33;;;;;;;7.68;5.38;;;;;;;;;;4786647;29;20110;-73
2021/08/21 13:34:05;;;;;;;6.22;5.03;;;;;;;;;;4786785;29;20129;-74
2021/08/21 13:36:31;;;;;;;8.73;4.53;;;;;;;;;;4786824;29;20342;-74
2021/08/21 13:38:56;;;;;;;24.45;5.32;;;;;;;;;;4786462;29;20031;-74
2021/08/21 13:41:22;;;;;;;9.82;5.15;;;;;;;;;;4786505;29;20054;-73
2021/08/21 13:43:47;;;;;;;11.60;4.32;;;;;;;;;;4802774;29;20387;-74
2021/08/21 13:46:13;;;;;;;11.13;4.18;;;;;;;;;;4803060;29;20064;-73
2021/08/21 13:48:38;;;;;;;16.60;3.88;;;;;;;;;;4803154;29;20060;-74
2021/08/21 13:51:04;;;;;;;6.95;4.50;;;;;;;;;;4802984;29;20482;-75
2021/08/21 13:53:29;;;;;;;8.40;4.60;;;;;;;;;;4786666;29;20030;-74
2021/08/21 13:55:55;;;;;;;6.38;4.10;;;;;;;;;;4802872;29;20087;-74
2021/08/21 13:58:21;;;;;;;8.43;4.30;;;;;;;;;;4802997;29;20118;-74
2021/08/21 14:00:46;;;;;;;7.28;3.95;;;;;;;;;;4802472;29;20034;-74
2021/08/21 14:03:12;;;;;;;6.10;3.33;;;;;;;;;;4786379;29;20430;-74
2021/08/21 14:05:38;;;;;;;6.82;3.60;;;;;;;;;;4786190;29;20034;-73
2021/08/21 14:08:08;;;;;;;7.05;4.25;;;;;;;;;;4802411;29;20539;-75
2021/08/21 14:10:34;;;;;;;7.78;4.55;;;;;;;;;;4802562;29;20041;-75
2021/08/21 14:12:59;;;;;;;4.20;2.75;;;;;;;;;;4802555;29;20121;-74
2021/08/21 14:15:25;;;;;;;6.60;3.60;;;;;;;;;;4786216;29;20031;-74
2021/08/21 14:17:50;;;;;;;4.93;3.00;;;;;;;;;;4786010;29;20495;-74
2021/08/21 14:20:16;;;;;;;3.67;2.45;;;;;;;;;;4786195;29;20121;-74
2021/08/21 14:22:41;;;;;;;4.13;3.13;;;;;;;;;;4802520;29;20050;-73
2021/08/21 14:25:08;;;;;;;5.63;3.22;;;;;;;;;;4802303;29;20062;-74
2021/08/21 14:27:33;;;;;;;5.28;3.33;;;;;;;;;;4801750;29;20117;-73
2021/08/21 14:29:59;;;;;;;6.10;4.60;;;;;;;;;;4801894;29;20110;-74